sensor_id;sensor_type;location;lat;lon;timestamp;pressure;altitude;pressure_sealevel;temperature;humidity
12913;BME280;6524;51.368;11.984;2022-07-23T16:46:56;100497.84;;;27.44;58.28
12913;BME280;6524;51.368;11.984;2022-07-23T16:51:56;100494.22;;;27.28;58.48
12913;BME280;6524;51.368;11.984;2022-07-23T16:56:57;100496.78;;;27.37;57.99
12913;BME280;6524;51.368;11.984;2022-07-23T17:01:57;100494.88;;;27.12;58.55
12913;BME280;6524;51.368;11.984;2022-07-23T17:06:57;100499.81;;;26.98;58.15
12913;BME280;6524;51.368;11.984;2022-07-23T17:12:03;100496.50;;;27.22;57.46
12913;BME280;6524;51.368;11.984;2022-07-23T17:17:03;100502.06;;;27.29;54.73
12913;BME280;6524;51.368;11.984;2022-07-23T17:22:04;100505.31;;;27.15;55.92
12913;BME280;6524;51.368;11.984;2022-07-23T17:27:05;100508.66;;;26.99;56.61
12913;BME280;6524;51.368;11.984;2022-07-23T17:32:05;100513.31;;;26.97;55.07
12913;BME280;6524;51.368;11.984;2022-07-23T17:37:06;100511.22;;;26.73;54.74
12913;BME280;6524;51.368;11.984;2022-07-23T17:42:06;100512.16;;;26.64;55.51
12913;BME280;6524;51.368;11.984;2022-07-23T17:47:06;100519.41;;;26.44;54.59
12913;BME280;6524;51.368;11.984;2022-07-23T17:52:07;100523.53;;;26.66;53.43
12913;BME280;6524;51.368;11.984;2022-07-23T17:57:07;100528.28;;;26.44;52.25
12913;BME280;6524;51.368;11.984;2022-07-23T18:02:08;100536.16;;;26.46;52.31
12913;BME280;6524;51.368;11.984;2022-07-23T18:07:08;100537.00;;;26.46;51.84
12913;BME280;6524;51.368;11.984;2022-07-23T18:12:09;100544.16;;;26.18;49.62
12913;BME280;6524;51.368;11.984;2022-07-23T18:17:09;100545.09;;;25.99;49.85
12913;BME280;6524;51.368;11.984;2022-07-23T18:27:25;100554.66;;;25.73;50.32
12913;BME280;6524;51.368;11.984;2022-07-23T18:32:27;100563.09;;;25.78;50.80
12913;BME280;6524;51.368;11.984;2022-07-23T18:37:27;100563.72;;;25.52;51.53
12913;BME280;6524;51.368;11.984;2022-07-23T18:42:28;100575.78;;;25.56;51.65
12913;BME280;6524;51.368;11.984;2022-07-23T18:47:28;100580.16;;;25.38;52.08
12913;BME280;6524;51.368;11.984;2022-07-23T18:52:28;100587.88;;;25.31;52.71
12913;BME280;6524;51.368;11.984;2022-07-23T18:57:29;100597.28;;;25.16;53.10
12913;BME280;6524;51.368;11.984;2022-07-23T19:02:29;100599.31;;;24.93;54.17
12913;BME280;6524;51.368;11.984;2022-07-23T19:07:29;100608.28;;;24.73;54.66
12913;BME280;6524;51.368;11.984;2022-07-23T19:12:29;100612.09;;;24.49;54.79
12913;BME280;6524;51.368;11.984;2022-07-23T19:17:30;100614.19;;;24.24;56.00
12913;BME280;6524;51.368;11.984;2022-07-23T19:22:30;100622.84;;;24.17;56.91
12913;BME280;6524;51.368;11.984;2022-07-23T19:27:31;100627.41;;;24.26;55.59
12913;BME280;6524;51.368;11.984;2022-07-23T19:32:31;100630.81;;;24.07;55.37
12913;BME280;6524;51.368;11.984;2022-07-23T19:37:31;100633.25;;;23.99;55.87
12913;BME280;6524;51.368;11.984;2022-07-23T19:42:32;100636.97;;;23.87;55.57
12913;BME280;6524;51.368;11.984;2022-07-23T19:47:34;100651.50;;;23.83;55.58
12913;BME280;6524;51.368;11.984;2022-07-23T19:52:34;100659.53;;;23.71;55.92
12913;BME280;6524;51.368;11.984;2022-07-23T19:57:36;100662.75;;;23.54;55.27
12913;BME280;6524;51.368;11.984;2022-07-23T20:02:37;100669.22;;;23.29;55.48
12913;BME280;6524;51.368;11.984;2022-07-23T20:07:38;100675.16;;;23.32;56.11
12913;BME280;6524;51.368;11.984;2022-07-23T20:12:39;100678.50;;;23.35;55.82
12913;BME280;6524;51.368;11.984;2022-07-23T20:17:40;100683.13;;;23.21;56.78
12913;BME280;6524;51.368;11.984;2022-07-23T20:22:40;100687.53;;;23.00;56.43
12913;BME280;6524;51.368;11.984;2022-07-23T20:27:41;100684.88;;;23.00;57.38
12913;BME280;6524;51.368;11.984;2022-07-23T20:32:44;100690.66;;;22.94;57.11
12913;BME280;6524;51.368;11.984;2022-07-23T20:37:44;100699.59;;;22.70;57.67
12913;BME280;6524;51.368;11.984;2022-07-23T20:42:45;100707.69;;;22.80;57.00
12913;BME280;6524;51.368;11.984;2022-07-23T20:47:48;100705.41;;;22.86;57.35
12913;BME280;6524;51.368;11.984;2022-07-23T20:52:48;100716.88;;;22.76;57.39
12913;BME280;6524;51.368;11.984;2022-07-23T20:57:49;100723.28;;;22.73;57.39
12913;BME280;6524;51.368;11.984;2022-07-23T21:02:49;100726.63;;;22.53;58.39
12913;BME280;6524;51.368;11.984;2022-07-23T21:07:50;100731.34;;;22.49;58.53
12913;BME280;6524;51.368;11.984;2022-07-23T21:12:50;100731.81;;;22.32;59.64
12913;BME280;6524;51.368;11.984;2022-07-23T21:17:50;100743.16;;;22.10;61.39
12913;BME280;6524;51.368;11.984;2022-07-23T21:22:51;100742.56;;;21.82;62.97
12913;BME280;6524;51.368;11.984;2022-07-23T21:27:51;100746.22;;;21.68;62.77
12913;BME280;6524;51.368;11.984;2022-07-23T21:32:52;100747.97;;;21.57;63.53
12913;BME280;6524;51.368;11.984;2022-07-23T21:37:52;100754.44;;;21.53;63.22
12913;BME280;6524;51.368;11.984;2022-07-23T21:42:52;100754.44;;;21.53;62.61
12913;BME280;6524;51.368;11.984;2022-07-23T21:47:52;100761.50;;;21.41;64.42
12913;BME280;6524;51.368;11.984;2022-07-23T21:52:53;100763.19;;;21.42;64.21
12913;BME280;6524;51.368;11.984;2022-07-23T21:57:54;100760.66;;;21.40;65.61
12913;BME280;6524;51.368;11.984;2022-07-23T22:02:54;100761.06;;;21.21;65.26
12913;BME280;6524;51.368;11.984;2022-07-23T22:07:55;100763.22;;;21.16;65.81
12913;BME280;6524;51.368;11.984;2022-07-23T22:12:55;100768.97;;;20.97;66.33
12913;BME280;6524;51.368;11.984;2022-07-23T22:17:56;100769.81;;;20.85;66.93
12913;BME280;6524;51.368;11.984;2022-07-23T22:22:56;100770.25;;;20.66;68.62
12913;BME280;6524;51.368;11.984;2022-07-23T22:27:57;100770.34;;;20.65;69.78
12913;BME280;6524;51.368;11.984;2022-07-23T22:32:57;100769.19;;;20.56;68.51
12913;BME280;6524;51.368;11.984;2022-07-23T22:37:58;100776.59;;;20.64;68.14
12913;BME280;6524;51.368;11.984;2022-07-23T22:42:58;100788.47;;;20.58;67.71
12913;BME280;6524;51.368;11.984;2022-07-23T22:47:58;100783.94;;;20.46;69.01
12913;BME280;6524;51.368;11.984;2022-07-23T22:52:59;100781.44;;;20.17;69.22
12913;BME280;6524;51.368;11.984;2022-07-23T22:57:59;100781.91;;;20.24;68.25
12913;BME280;6524;51.368;11.984;2022-07-23T23:03:00;100777.81;;;20.45;67.88
12913;BME280;6524;51.368;11.984;2022-07-23T23:08:00;100784.06;;;20.04;69.91
12913;BME280;6524;51.368;11.984;2022-07-23T23:13:00;100783.81;;;19.95;70.57
12913;BME280;6524;51.368;11.984;2022-07-23T23:18:01;100772.00;;;20.00;69.73
12913;BME280;6524;51.368;11.984;2022-07-23T23:23:01;100778.28;;;19.85;71.24
12913;BME280;6524;51.368;11.984;2022-07-23T23:28:01;100773.97;;;19.70;71.14
12913;BME280;6524;51.368;11.984;2022-07-23T23:33:02;100776.22;;;19.61;72.80
12913;BME280;6524;51.368;11.984;2022-07-23T23:38:02;100778.22;;;19.72;73.25
12913;BME280;6524;51.368;11.984;2022-07-23T23:43:03;100775.47;;;19.74;72.92
12913;BME280;6524;51.368;11.984;2022-07-23T23:48:03;100775.28;;;19.77;72.93
12913;BME280;6524;51.368;11.984;2022-07-23T23:53:04;100778.16;;;19.45;73.42
12913;BME280;6524;51.368;11.984;2022-07-23T23:58:04;100776.84;;;19.24;73.71
